Time;durP1;ratioP1;P1;durP2;ratioP2;P2;SDS_P1;SDS_P2;PMS_P1;PMS_P2;Temp;Humidity;BMP_temperature;BMP_pressure;BME280_temperature;BME280_humidity;BME280_pressure;Samples;Min_cycle;Max_cycle;Signal;HPM_P1;HPM_P2
2021/07/13 00:01:14;;;;;;;8.98;3.30;;;22.90;74.30;;;;;;5122395;28;20521;-63
2021/07/13 00:03:48;;;;;;;4.57;3.70;;;22.90;74.30;;;;;;5118696;28;20047;-64
2021/07/13 00:06:21;;;;;;;5.65;3.53;;;22.90;74.40;;;;;;5125348;28;20366;-63
2021/07/13 00:08:54;;;;;;;8.93;3.60;;;22.80;74.30;;;;;;5125146;28;20043;-64
2021/07/13 00:11:26;;;;;;;5.63;3.83;;;22.80;74.30;;;;;;5123931;28;20435;-64
2021/07/13 00:13:59;;;;;;;8.45;3.50;;;22.80;74.30;;;;;;5124116;28;20395;-64
2021/07/13 00:16:32;;;;;;;7.90;3.37;;;22.80;74.30;;;;;;5116361;28;20061;-63
2021/07/13 00:19:05;;;;;;;8.27;3.20;;;22.80;74.40;;;;;;5120658;28;20670;-63
2021/07/13 00:21:38;;;;;;;7.03;3.58;;;22.80;74.40;;;;;;5125213;28;20416;-63
2021/07/13 00:24:11;;;;;;;4.75;3.53;;;22.80;74.40;;;;;;5127025;28;20049;-63
2021/07/13 00:26:43;;;;;;;7.10;3.13;;;22.70;74.40;;;;;;5107070;28;20495;-64
2021/07/13 00:29:16;;;;;;;4.22;3.40;;;22.70;74.50;;;;;;5125255;28;20066;-63
2021/07/13 00:31:48;;;;;;;6.68;3.50;;;22.70;74.50;;;;;;5123716;28;20057;-64
2021/07/13 00:34:21;;;;;;;4.72;3.42;;;22.70;74.50;;;;;;5122293;28;20693;-64
2021/07/13 00:36:54;;;;;;;13.55;3.92;;;22.70;74.50;;;;;;5117242;28;20050;-61
2021/07/13 00:39:26;;;;;;;5.28;3.50;;;22.70;74.60;;;;;;5121416;28;20461;-61
2021/07/13 00:41:59;;;;;;;6.57;3.15;;;22.70;74.60;;;;;;5128655;28;20401;-64
2021/07/13 00:44:31;;;;;;;4.60;2.90;;;22.60;74.60;;;;;;5126211;28;20078;-63
2021/07/13 00:47:03;;;;;;;5.22;3.47;;;22.60;74.50;;;;;;5126023;28;20058;-63
2021/07/13 00:49:37;;;;;;;7.17;3.43;;;22.70;74.60;;;;;;5122823;28;20046;-63
2021/07/13 00:52:09;;;;;;;5.40;3.22;;;22.60;74.60;;;;;;5125854;28;20309;-64
2021/07/13 00:54:43;;;;;;;5.88;3.38;;;22.60;74.50;;;;;;5126788;28;20538;-64
2021/07/13 00:57:18;;;;;;;6.78;3.45;;;22.60;74.60;;;;;;5131075;28;20046;-63
2021/07/13 00:59:51;;;;;;;4.75;3.10;;;22.60;74.60;;;;;;5127436;28;20580;-63
2021/07/13 01:02:24;;;;;;;4.75;3.47;;;22.60;74.60;;;;;;5126753;28;23531;-63
2021/07/13 01:05:00;;;;;;;4.65;3.42;;;22.60;74.60;;;;;;5126141;28;20054;-64
2021/07/13 01:08:21;;;;;;;4.95;3.20;;;22.60;74.60;;;;;;5123008;28;20063;-63
2021/07/13 01:11:15;;;;;;;4.78;3.20;;;22.60;74.60;;;;;;5084551;28;20054;-63
2021/07/13 01:14:15;;;;;;;6.90;3.17;;;22.60;74.60;;;;;;5123503;28;20054;-64
2021/07/13 01:16:54;;;;;;;5.40;3.13;;;22.50;74.60;;;;;;5125500;28;20050;-62
2021/07/13 01:19:33;;;;;;;5.13;3.45;;;22.50;74.70;;;;;;5099393;28;20055;-64
2021/07/13 01:22:16;;;;;;;5.15;3.30;;;22.50;74.80;;;;;;5107533;28;20057;-63
2021/07/13 01:25:03;;;;;;;3.80;3.20;;;22.50;74.90;;;;;;5116654;28;20051;-64
2021/07/13 01:27:47;;;;;;;5.70;3.20;;;22.50;75.00;;;;;;5126267;28;20524;-61
2021/07/13 01:30:26;;;;;;;3.85;3.08;;;22.50;75.10;;;;;;5128304;28;20480;-60
2021/07/13 01:33:10;;;;;;;4.30;3.30;;;22.50;75.20;;;;;;5104049;28;20051;-63
2021/07/13 01:35:53;;;;;;;;;;;22.50;75.20;;;;;;5126910;28;20047;-63
2021/07/13 01:38:27;;;;;;;5.38;3.53;;;22.40;75.20;;;;;;5123766;28;19933;-64
2021/07/13 01:41:09;;;;;;;6.45;3.42;;;22.40;75.10;;;;;;5121686;28;20062;-62
2021/07/13 01:43:43;;;;;;;6.85;3.22;;;22.40;75.30;;;;;;5124700;28;20038;-63
2021/07/13 01:46:18;;;;;;;6.10;2.80;;;22.40;75.40;;;;;;5106460;28;20047;-62
2021/07/13 01:48:55;;;;;;;4.70;3.53;;;22.40;75.50;;;;;;5124264;28;20062;-62
2021/07/13 01:51:29;;;;;;;7.10;3.25;;;22.40;75.60;;;;;;5094988;28;20043;-64
2021/07/13 01:54:08;;;;;;;6.53;3.00;;;22.40;75.70;;;;;;5126853;28;20288;-64
2021/07/13 01:56:43;;;;;;;3.47;2.63;;;22.40;75.70;;;;;;5124707;28;20070;-64
2021/07/13 01:59:18;;;;;;;7.68;3.63;;;22.40;75.70;;;;;;5125874;28;20057;-64
2021/07/13 02:01:56;;;;;;;3.35;2.40;;;22.40;75.70;;;;;;5115261;28;20046;-63
2021/07/13 02:04:30;;;;;;;4.22;3.10;;;22.40;75.80;;;;;;5124774;28;20051;-63
2021/07/13 02:07:06;;;;;;;3.25;2.92;;;22.40;75.90;;;;;;5125692;28;20038;-63
2021/07/13 02:09:41;;;;;;;6.72;3.13;;;22.40;76.00;;;;;;5121062;28;20508;-64
2021/07/13 02:12:14;;;;;;;5.90;3.00;;;22.40;76.10;;;;;;5126001;28;20051;-64
2021/07/13 02:14:46;;;;;;;4.10;3.20;;;22.40;76.00;;;;;;5109169;28;20042;-63
2021/07/13 02:17:19;;;;;;;7.57;3.22;;;22.40;76.20;;;;;;5119905;28;20423;-63
2021/07/13 02:19:52;;;;;;;3.65;3.08;;;22.40;76.10;;;;;;5121384;28;20039;-64
2021/07/13 02:22:24;;;;;;;6.35;2.97;;;22.40;76.10;;;;;;5102713;28;20050;-64
2021/07/13 02:24:57;;;;;;;5.20;2.88;;;22.40;76.20;;;;;;5126937;28;20047;-64
2021/07/13 02:27:31;;;;;;;6.05;3.30;;;22.40;76.20;;;;;;5110246;28;20060;-64
2021/07/13 02:30:06;;;;;;;5.95;2.97;;;22.40;76.30;;;;;;5127045;28;20055;-62
2021/07/13 02:32:49;;;;;;;3.47;3.00;;;22.30;76.30;;;;;;5123099;28;20043;-64
2021/07/13 02:35:31;;;;;;;5.60;3.20;;;22.40;76.40;;;;;;5124970;28;20047;-63
2021/07/13 02:38:06;;;;;;;5.60;3.08;;;22.30;76.30;;;;;;5125968;28;20051;-64
2021/07/13 02:40:40;;;;;;;4.47;3.22;;;22.30;76.40;;;;;;5125204;28;20055;-64
2021/07/13 02:43:12;;;;;;;4.90;3.17;;;22.40;76.40;;;;;;5123843;28;20784;-63
2021/07/13 02:45:46;;;;;;;3.67;3.08;;;22.40;76.50;;;;;;5123477;28;20063;-63
2021/07/13 02:48:19;;;;;;;5.85;3.22;;;22.30;76.40;;;;;;5126570;28;20526;-63
2021/07/13 02:50:55;;;;;;;5.15;3.03;;;22.30;76.40;;;;;;5124727;28;20047;-64
2021/07/13 02:53:29;;;;;;;3.90;3.13;;;22.30;76.40;;;;;;5128927;28;20047;-63
2021/07/13 02:56:03;;;;;;;5.07;2.92;;;22.30;76.40;;;;;;5124393;28;20287;-62
2021/07/13 02:58:38;;;;;;;3.55;2.85;;;22.30;76.30;;;;;;5126208;28;20035;-63
2021/07/13 03:01:11;;;;;;;5.03;3.40;;;22.30;76.20;;;;;;5128118;28;20051;-61
2021/07/13 03:03:45;;;;;;;3.95;2.90;;;22.30;76.90;;;;;;5129126;28;20042;-63
2021/07/13 03:06:19;;;;;;;3.83;3.10;;;22.30;76.30;;;;;;5128789;28;20043;-62
2021/07/13 03:08:53;;;;;;;4.57;3.03;;;22.30;76.30;;;;;;5130552;28;20051;-63
2021/07/13 03:11:26;;;;;;;6.50;3.42;;;22.30;76.30;;;;;;5122992;28;20415;-63
2021/07/13 03:14:01;;;;;;;6.80;3.30;;;22.30;76.30;;;;;;5126419;28;20043;-63
2021/07/13 03:16:35;;;;;;;6.93;2.83;;;22.30;76.30;;;;;;5127337;28;21001;-62
2021/07/13 03:19:13;;;;;;;5.70;3.88;;;22.30;76.40;;;;;;5133819;28;20420;-63
2021/07/13 03:21:51;;;;;;;5.97;3.00;;;22.30;76.40;;;;;;5125378;28;20047;-63
2021/07/13 03:24:26;;;;;;;7.18;3.10;;;22.30;76.50;;;;;;5121355;28;20046;-63
2021/07/13 03:27:00;;;;;;;6.93;3.35;;;22.30;76.40;;;;;;5129315;28;21392;-63
2021/07/13 03:29:33;;;;;;;8.27;3.60;;;22.30;76.40;;;;;;5129169;28;20055;-63
2021/07/13 03:32:07;;;;;;;3.53;2.90;;;22.30;76.50;;;;;;5127566;28;20066;-61
2021/07/13 03:34:39;;;;;;;;;;;22.30;76.40;;;;;;5127515;28;20341;-64
2021/07/13 03:37:12;;;;;;;6.85;3.22;;;22.20;76.40;;;;;;5126471;28;19925;-62
2021/07/13 03:39:46;;;;;;;6.55;3.50;;;22.20;76.40;;;;;;5128850;28;20058;-62
2021/07/13 03:42:19;;;;;;;5.30;3.72;;;22.20;76.60;;;;;;5127135;28;20054;-63
2021/07/13 03:44:52;;;;;;;4.65;2.85;;;22.20;76.60;;;;;;5131448;28;20061;-63
2021/07/13 03:47:24;;;;;;;5.90;3.40;;;22.20;76.80;;;;;;5111909;28;20043;-63
2021/07/13 03:49:58;;;;;;;4.97;2.97;;;22.20;76.70;;;;;;5119463;28;20313;-63
2021/07/13 03:52:30;;;;;;;4.50;3.33;;;22.20;76.70;;;;;;5122643;28;20062;-62
2021/07/13 03:55:03;;;;;;;3.70;3.10;;;22.20;76.80;;;;;;5126177;28;20351;-63
2021/07/13 03:57:35;;;;;;;4.95;3.13;;;22.20;76.90;;;;;;5123209;28;20050;-63
2021/07/13 04:00:11;;;;;;;4.50;3.78;;;22.10;77.00;;;;;;5118654;28;20050;-63
2021/07/13 04:02:44;;;;;;;4.47;3.58;;;22.10;77.20;;;;;;5115507;28;20035;-62
2021/07/13 04:05:17;;;;;;;6.13;3.92;;;22.10;77.40;;;;;;5124377;28;20054;-62
2021/07/13 04:07:49;;;;;;;5.35;3.55;;;22.10;77.50;;;;;;5123863;28;20042;-63
2021/07/13 04:10:22;;;;;;;6.28;3.45;;;22.10;77.70;;;;;;5115188;28;20051;-61
2021/07/13 04:12:55;;;;;;;10.88;3.65;;;22.10;77.60;;;;;;5118710;28;20062;-63
2021/07/13 04:15:27;;;;;;;6.75;3.70;;;22.10;77.40;;;;;;5099650;28;20059;-63
2021/07/13 04:18:00;;;;;;;6.30;3.42;;;22.20;77.30;;;;;;5122228;28;20051;-62
2021/07/13 04:20:32;;;;;;;4.57;3.30;;;22.20;77.20;;;;;;5100751;28;20050;-62
2021/07/13 04:23:05;;;;;;;6.45;3.83;;;22.30;77.10;;;;;;5114468;28;20059;-63
2021/07/13 04:25:37;;;;;;;8.18;3.58;;;22.30;77.00;;;;;;5124571;28;20825;-61
2021/07/13 04:28:10;;;;;;;6.65;3.55;;;22.30;76.90;;;;;;5123561;28;20050;-62
2021/07/13 04:30:43;;;;;;;5.07;3.42;;;22.30;76.90;;;;;;5106952;28;20240;-62
2021/07/13 04:33:16;;;;;;;6.83;3.50;;;22.40;76.90;;;;;;5122076;28;20523;-62
2021/07/13 04:35:48;;;;;;;6.70;3.60;;;22.40;76.80;;;;;;5120518;28;20287;-63
2021/07/13 04:38:21;;;;;;;7.47;3.47;;;22.40;76.80;;;;;;5123224;28;20054;-63
2021/07/13 04:40:54;;;;;;;6.72;3.60;;;22.40;76.80;;;;;;5114545;28;20446;-60
2021/07/13 04:43:26;;;;;;;5.37;3.57;;;22.40;76.80;;;;;;5109725;28;20039;-63
2021/07/13 04:46:03;;;;;;;7.40;3.53;;;22.40;76.80;;;;;;5110997;28;20069;-61
2021/07/13 04:48:36;;;;;;;3.77;3.30;;;22.50;76.80;;;;;;5111072;28;20074;-62
2021/07/13 04:51:08;;;;;;;5.40;3.40;;;22.50;76.80;;;;;;5094527;28;20054;-63
2021/07/13 04:53:42;;;;;;;10.13;3.60;;;22.50;76.80;;;;;;5093454;28;20061;-63
2021/07/13 04:56:14;;;;;;;;;;;22.50;76.80;;;;;;5107594;28;20054;-61
2021/07/13 04:58:46;;;;;;;5.97;3.60;;;22.50;76.80;;;;;;5096487;28;19931;-62
2021/07/13 05:01:19;;;;;;;6.35;4.00;;;22.50;76.80;;;;;;5118257;28;20475;-62
2021/07/13 05:03:51;;;;;;;5.90;3.40;;;22.50;76.80;;;;;;5116261;28;20411;-63
2021/07/13 05:06:24;;;;;;;7.60;4.03;;;22.50;76.90;;;;;;5117665;28;20459;-64
2021/07/13 05:08:57;;;;;;;6.65;3.72;;;22.50;77.30;;;;;;5117890;28;20062;-61
2021/07/13 05:11:33;;;;;;;12.10;4.97;;;22.50;77.50;;;;;;5109842;28;20423;-60
2021/07/13 05:14:06;;;;;;;11.57;4.53;;;22.50;77.90;;;;;;5108729;28;20054;-61
2021/07/13 05:16:38;;;;;;;12.32;4.63;;;22.50;78.20;;;;;;5115813;28;20210;-62
2021/07/13 05:19:13;;;;;;;5.22;3.85;;;22.50;78.30;;;;;;5118233;28;20554;-60
2021/07/13 05:21:55;;;;;;;9.52;4.30;;;22.50;78.40;;;;;;5118123;28;20051;-62
2021/07/13 05:24:28;;;;;;;4.63;3.67;;;22.40;78.40;;;;;;5098794;28;20062;-62
2021/07/13 05:27:00;;;;;;;6.93;4.38;;;22.40;78.50;;;;;;5118132;28;20522;-61
2021/07/13 05:29:33;;;;;;;8.18;3.88;;;22.40;78.70;;;;;;5113990;28;20057;-63
2021/07/13 05:32:05;;;;;;;9.20;3.90;;;22.50;78.80;;;;;;5090492;28;20059;-67
2021/07/13 05:34:38;;;;;;;19.25;5.10;;;22.40;78.90;;;;;;5092140;28;20054;-65
2021/07/13 05:37:11;;;;;;;10.43;4.28;;;22.50;79.20;;;;;;5076649;28;20050;-65
2021/07/13 05:39:44;;;;;;;10.45;4.30;;;22.50;79.10;;;;;;5092675;28;20189;-65
2021/07/13 05:42:16;;;;;;;7.00;4.05;;;22.50;78.70;;;;;;5091274;28;20116;-65
2021/07/13 05:44:49;;;;;;;13.18;4.43;;;22.70;78.50;;;;;;5104892;28;20057;-62
2021/07/13 05:47:21;;;;;;;11.95;4.20;;;22.70;78.20;;;;;;5121622;28;20050;-62
2021/07/13 05:49:54;;;;;;;12.05;3.90;;;22.80;77.60;;;;;;5121836;28;20046;-62
2021/07/13 05:52:26;;;;;;;9.10;4.25;;;22.90;77.20;;;;;;5090033;28;20838;-62
2021/07/13 05:54:59;;;;;;;15.52;3.80;;;22.90;77.00;;;;;;5120177;28;20404;-63
2021/07/13 05:57:32;;;;;;;9.18;3.88;;;22.90;76.60;;;;;;5115998;28;20055;-62
2021/07/13 06:00:07;;;;;;;15.70;3.90;;;23.00;76.50;;;;;;5113875;28;20433;-62
2021/07/13 06:02:45;;;;;;;7.53;4.53;;;23.00;76.40;;;;;;5114183;28;20051;-61
2021/07/13 06:05:17;;;;;;;6.28;3.85;;;23.00;76.30;;;;;;5097324;28;20055;-63
2021/07/13 06:07:50;;;;;;;11.15;3.97;;;23.00;76.30;;;;;;5112266;28;20047;-62
2021/07/13 06:10:22;;;;;;;9.40;4.00;;;23.00;76.30;;;;;;5110341;28;20058;-62
2021/07/13 06:12:55;;;;;;;9.38;3.67;;;23.00;76.20;;;;;;5115363;28;20427;-61
2021/07/13 06:15:27;;;;;;;11.25;4.82;;;23.10;76.30;;;;;;5110226;28;20488;-62
2021/07/13 06:18:00;;;;;;;11.93;3.58;;;23.00;76.30;;;;;;5094847;28;20053;-61
2021/07/13 06:20:35;;;;;;;12.02;3.70;;;23.00;76.20;;;;;;5117926;28;20051;-61
2021/07/13 06:23:07;;;;;;;9.38;3.78;;;23.00;76.20;;;;;;5122152;28;20057;-62
2021/07/13 06:25:40;;;;;;;11.93;4.68;;;23.00;76.10;;;;;;5094884;28;20958;-62
2021/07/13 06:28:12;;;;;;;7.03;3.37;;;23.00;76.00;;;;;;5100321;28;20038;-61
2021/07/13 06:30:45;;;;;;;11.20;4.32;;;23.10;76.00;;;;;;5110626;28;20054;-61
2021/07/13 06:33:17;;;;;;;13.93;4.47;;;23.10;76.00;;;;;;5115901;28;20427;-63
2021/07/13 06:35:50;;;;;;;9.35;3.78;;;23.10;75.90;;;;;;5098237;28;20051;-63
2021/07/13 06:38:22;;;;;;;7.43;3.50;;;23.10;76.00;;;;;;5113494;28;20043;-61
2021/07/13 06:40:54;;;;;;;12.43;3.95;;;23.10;76.00;;;;;;5116394;28;20052;-62
2021/07/13 06:43:27;;;;;;;8.32;4.50;;;23.10;76.20;;;;;;5105404;28;20053;-62
2021/07/13 06:45:59;;;;;;;10.48;4.40;;;23.10;76.30;;;;;;5128499;28;20935;-62
2021/07/13 06:48:31;;;;;;;13.45;4.47;;;23.10;76.30;;;;;;5127024;28;20042;-63
2021/07/13 06:51:04;;;;;;;7.35;4.10;;;23.10;76.40;;;;;;5127248;28;20057;-62
2021/07/13 06:53:36;;;;;;;8.43;3.53;;;23.10;76.40;;;;;;5129889;28;20046;-60
2021/07/13 06:56:09;;;;;;;7.13;3.78;;;23.10;76.40;;;;;;5129311;28;20057;-62
2021/07/13 06:58:41;;;;;;;11.48;3.75;;;23.10;76.40;;;;;;5132319;28;20050;-63
2021/07/13 07:01:14;;;;;;;5.90;3.65;;;23.10;76.30;;;;;;5125951;28;20039;-63
2021/07/13 07:03:46;;;;;;;14.25;3.67;;;23.10;76.30;;;;;;5110549;28;20049;-60
2021/07/13 07:06:19;;;;;;;7.60;3.40;;;23.10;76.20;;;;;;5129419;28;20043;-63
2021/07/13 07:08:51;;;;;;;6.28;3.70;;;23.10;76.20;;;;;;5123800;28;20055;-63
2021/07/13 07:11:24;;;;;;;8.85;3.47;;;23.10;76.10;;;;;;5130801;28;20059;-62
2021/07/13 07:13:56;;;;;;;5.85;3.47;;;23.10;76.10;;;;;;5110016;28;20052;-62
2021/07/13 07:16:29;;;;;;;7.18;4.07;;;23.10;76.10;;;;;;5129818;28;20050;-62
2021/07/13 07:19:01;;;;;;;7.70;3.92;;;23.10;76.00;;;;;;5125818;28;21090;-62
2021/07/13 07:21:33;;;;;;;7.38;3.90;;;23.20;76.00;;;;;;5128908;28;20038;-61
2021/07/13 07:24:06;;;;;;;6.55;3.78;;;23.10;76.00;;;;;;5125758;28;20050;-60
2021/07/13 07:26:38;;;;;;;8.10;3.50;;;23.20;75.90;;;;;;5128093;28;20046;-62
2021/07/13 07:29:11;;;;;;;6.32;3.38;;;23.20;75.90;;;;;;5128700;28;20059;-62
2021/07/13 07:31:43;;;;;;;8.55;3.42;;;23.20;75.90;;;;;;5123842;28;20502;-62
2021/07/13 07:34:17;;;;;;;6.80;4.03;;;23.20;75.80;;;;;;5127139;28;20051;-63
2021/07/13 07:36:50;;;;;;;;;;;23.20;75.80;;;;;;5129116;28;20065;-61
2021/07/13 07:39:22;;;;;;;6.00;3.75;;;23.20;75.80;;;;;;5111036;28;20318;-63
2021/07/13 07:41:54;;;;;;;6.20;3.47;;;23.20;75.70;;;;;;5125627;28;20046;-62
2021/07/13 07:44:27;;;;;;;9.57;3.63;;;23.20;75.70;;;;;;5129425;28;20378;-63
2021/07/13 07:46:59;;;;;;;5.75;3.22;;;23.20;75.70;;;;;;5126931;28;20058;-63
2021/07/13 07:49:32;;;;;;;6.97;3.53;;;23.20;75.70;;;;;;5127064;28;20069;-61
2021/07/13 07:52:04;;;;;;;7.07;3.15;;;23.20;75.60;;;;;;5128682;28;20062;-62
2021/07/13 07:54:37;;;;;;;5.73;3.90;;;23.30;75.60;;;;;;5130411;28;20050;-62
2021/07/13 07:57:09;;;;;;;4.50;3.30;;;23.20;75.60;;;;;;5127914;28;20151;-61
2021/07/13 07:59:42;;;;;;;5.75;3.15;;;23.30;75.60;;;;;;5130651;28;20514;-62
2021/07/13 08:02:15;;;;;;;6.50;3.40;;;23.30;75.60;;;;;;5131843;28;20392;-62
2021/07/13 08:04:48;;;;;;;7.63;3.90;;;23.30;75.50;;;;;;5133748;28;20129;-63
2021/07/13 08:07:20;;;;;;;6.15;3.28;;;23.30;75.50;;;;;;5118172;28;20709;-61
2021/07/13 08:09:53;;;;;;;4.17;2.90;;;23.30;75.50;;;;;;5130809;28;20051;-63
2021/07/13 08:12:25;;;;;;;3.60;2.93;;;23.30;75.40;;;;;;5131728;28;20419;-63
2021/07/13 08:14:58;;;;;;;4.55;3.45;;;23.30;75.40;;;;;;5124767;28;20054;-63
2021/07/13 08:17:30;;;;;;;5.88;3.30;;;23.30;75.40;;;;;;5125198;28;20057;-63
2021/07/13 08:20:05;;;;;;;7.70;3.25;;;23.30;75.40;;;;;;5120237;28;20058;-63
2021/07/13 08:22:37;;;;;;;4.18;2.83;;;23.30;75.40;;;;;;5124459;28;20043;-63
2021/07/13 08:25:10;;;;;;;4.97;3.15;;;23.30;75.30;;;;;;5128045;28;20051;-59
2021/07/13 08:27:44;;;;;;;4.20;3.30;;;23.30;75.30;;;;;;5108268;28;20070;-59
2021/07/13 08:30:17;;;;;;;7.22;3.25;;;23.40;75.20;;;;;;5126984;28;20054;-60
2021/07/13 08:32:50;;;;;;;;;;;23.40;75.20;;;;;;5079424;28;20047;-61
2021/07/13 08:35:22;;;;;;;6.28;3.55;;;23.30;75.20;;;;;;5101890;28;19941;-60
2021/07/13 08:37:55;;;;;;;4.07;3.00;;;23.30;75.10;;;;;;5092074;28;20047;-61
2021/07/13 08:40:29;;;;;;;5.88;3.70;;;23.40;75.20;;;;;;5113329;28;20062;-60
2021/07/13 08:43:02;;;;;;;5.93;3.25;;;23.40;75.20;;;;;;5106215;28;20829;-60
2021/07/13 08:45:34;;;;;;;4.17;3.20;;;23.40;75.10;;;;;;5114089;28;20051;-60
2021/07/13 08:48:09;;;;;;;3.25;2.70;;;23.40;75.10;;;;;;5098997;28;20059;-61
2021/07/13 08:50:42;;;;;;;6.22;3.40;;;23.40;75.10;;;;;;5124639;28;20066;-60
2021/07/13 08:53:14;;;;;;;5.55;3.28;;;23.40;75.10;;;;;;5110509;28;20047;-61
2021/07/13 08:55:47;;;;;;;8.70;3.80;;;23.40;75.00;;;;;;5127300;28;20407;-59
2021/07/13 08:58:19;;;;;;;3.92;3.53;;;23.40;75.00;;;;;;5102981;28;20412;-60
2021/07/13 09:00:53;;;;;;;3.97;3.50;;;23.40;75.00;;;;;;5113813;28;20043;-60
2021/07/13 09:03:30;;;;;;;6.22;3.10;;;23.50;75.00;;;;;;5123029;28;20173;-60
2021/07/13 09:06:04;;;;;;;5.35;3.70;;;23.50;75.00;;;;;;5103608;28;20046;-59
2021/07/13 09:08:37;;;;;;;6.60;3.78;;;23.50;75.10;;;;;;5121548;28;20073;-59
2021/07/13 09:11:13;;;;;;;4.35;3.90;;;23.50;75.10;;;;;;5117670;28;20043;-59
2021/07/13 09:13:49;;;;;;;6.07;4.10;;;23.50;75.10;;;;;;5115036;28;20046;-59
2021/07/13 09:16:24;;;;;;;6.30;4.50;;;23.50;75.10;;;;;;5092324;28;20069;-61
2021/07/13 09:18:58;;;;;;;6.53;4.43;;;23.50;75.20;;;;;;5118525;28;20687;-62
2021/07/13 09:21:35;;;;;;;8.07;4.22;;;23.40;75.20;;;;;;5112752;28;20047;-61
2021/07/13 09:24:20;;;;;;;6.07;4.65;;;23.50;75.20;;;;;;5093014;28;20061;-63
2021/07/13 09:26:53;;;;;;;6.50;5.00;;;23.50;75.20;;;;;;5112314;28;20066;-62
2021/07/13 09:29:36;;;;;;;6.72;4.60;;;23.40;75.20;;;;;;5113466;28;20059;-62
2021/07/13 09:32:19;;;;;;;7.10;4.97;;;23.50;75.20;;;;;;5122215;28;20838;-62
2021/07/13 09:34:56;;;;;;;5.53;5.03;;;23.50;75.10;;;;;;5117391;28;20058;-61
2021/07/13 09:37:31;;;;;;;7.03;5.07;;;23.50;75.10;;;;;;5123213;28;20047;-62
2021/07/13 09:40:04;;;;;;;6.50;5.30;;;23.50;75.10;;;;;;5122923;28;20043;-62
2021/07/13 09:42:49;;;;;;;7.10;5.40;;;23.60;75.20;;;;;;5122411;28;20611;-63
2021/07/13 09:45:26;;;;;;;5.70;5.13;;;23.50;75.10;;;;;;5122535;28;20039;-63
2021/07/13 09:48:19;;;;;;;7.57;5.88;;;23.50;75.20;;;;;;5123260;28;20526;-62
2021/07/13 09:50:51;;;;;;;6.50;5.30;;;23.50;75.20;;;;;;5127422;28;20046;-62
2021/07/13 09:53:23;;;;;;;7.63;5.97;;;23.50;75.20;;;;;;5127300;28;20518;-64
2021/07/13 09:55:56;;;;;;;6.13;5.53;;;23.50;75.30;;;;;;5127667;28;20035;-63
2021/07/13 09:58:28;;;;;;;6.32;5.65;;;23.50;75.20;;;;;;5125838;28;20140;-61
2021/07/13 10:01:01;;;;;;;6.68;5.97;;;23.50;75.20;;;;;;5099377;28;20053;-63
2021/07/13 10:03:35;;;;;;;8.60;5.55;;;23.50;75.20;;;;;;5118896;28;20749;-62
2021/07/13 10:06:09;;;;;;;6.13;5.40;;;23.60;75.10;;;;;;5121327;28;20054;-60
2021/07/13 10:08:42;;;;;;;7.50;5.82;;;23.60;75.00;;;;;;5121282;28;20051;-62
2021/07/13 10:11:15;;;;;;;6.13;5.53;;;23.60;75.00;;;;;;5129829;28;20404;-61
2021/07/13 10:13:47;;;;;;;8.25;5.70;;;23.60;75.00;;;;;;5126564;28;20059;-62
2021/07/13 10:16:20;;;;;;;6.00;5.30;;;23.60;75.00;;;;;;5122648;28;20055;-61
2021/07/13 10:18:52;;;;;;;6.32;5.70;;;23.60;75.00;;;;;;5125938;28;20082;-62
2021/07/13 10:21:26;;;;;;;7.20;5.50;;;23.60;75.10;;;;;;5123685;28;20181;-61
2021/07/13 10:24:00;;;;;;;6.47;5.82;;;23.60;75.20;;;;;;5128126;28;20567;-62
2021/07/13 10:26:51;;;;;;;8.35;6.15;;;23.50;75.20;;;;;;5124248;28;20077;-60
2021/07/13 10:29:33;;;;;;;5.97;5.38;;;23.50;75.20;;;;;;5130395;28;20278;-63
2021/07/13 10:32:19;;;;;;;7.22;5.97;;;23.50;75.30;;;;;;5128880;28;20051;-62
2021/07/13 10:34:55;;;;;;;8.20;5.90;;;23.50;75.40;;;;;;5127510;28;20451;-62
2021/07/13 10:37:35;;;;;;;5.97;5.15;;;23.50;75.40;;;;;;5124808;28;20058;-62
2021/07/13 10:40:14;;;;;;;9.15;5.22;;;23.50;75.50;;;;;;5128051;28;20074;-62
2021/07/13 10:42:48;;;;;;;7.40;6.20;;;23.50;75.60;;;;;;5130607;28;20212;-62
2021/07/13 10:45:34;;;;;;;8.52;6.45;;;23.50;75.70;;;;;;5124707;28;20043;-61
2021/07/13 10:48:20;;;;;;;6.32;5.65;;;23.40;75.60;;;;;;5122127;28;20046;-62
2021/07/13 10:51:04;;;;;;;6.82;5.80;;;23.50;75.70;;;;;;5128438;28;20058;-62
2021/07/13 10:53:45;;;;;;;6.60;5.55;;;23.40;75.70;;;;;;5127221;28;20043;-62
2021/07/13 10:56:32;;;;;;;6.80;6.10;;;23.50;75.70;;;;;;5105624;28;20131;-63
2021/07/13 10:59:23;;;;;;;7.20;5.72;;;23.40;75.70;;;;;;5124531;28;20058;-62
2021/07/13 11:02:11;;;;;;;7.18;5.43;;;23.40;75.70;;;;;;5124344;28;20611;-62
2021/07/13 11:04:44;;;;;;;10.00;5.28;;;23.40;75.70;;;;;;5127608;28;20047;-61
2021/07/13 11:07:39;;;;;;;5.70;5.20;;;23.40;75.80;;;;;;5126994;28;20046;-61
2021/07/13 11:10:18;;;;;;;6.35;5.40;;;23.40;75.80;;;;;;5100804;28;20603;-62
2021/07/13 11:12:51;;;;;;;6.72;5.45;;;23.40;75.80;;;;;;5122242;28;20054;-61
2021/07/13 11:15:24;;;;;;;6.57;5.90;;;23.40;75.80;;;;;;5107566;28;20046;-61
2021/07/13 11:17:56;;;;;;;6.65;5.47;;;23.40;75.80;;;;;;5121604;28;20069;-61
2021/07/13 11:20:29;;;;;;;6.38;5.68;;;23.40;75.80;;;;;;5120292;28;20062;-62
2021/07/13 11:23:01;;;;;;;7.97;5.72;;;23.40;75.80;;;;;;5118903;28;20050;-61
2021/07/13 11:25:34;;;;;;;5.97;4.90;;;23.40;75.70;;;;;;5119342;28;20058;-63
2021/07/13 11:28:07;;;;;;;6.05;5.28;;;23.40;75.70;;;;;;5118547;28;20054;-63
2021/07/13 11:30:39;;;;;;;7.45;5.45;;;23.40;75.60;;;;;;5118849;28;20582;-63
2021/07/13 11:33:12;;;;;;;6.63;5.23;;;23.40;75.60;;;;;;5116295;28;20061;-62
2021/07/13 11:35:52;;;;;;;5.63;5.13;;;23.40;75.50;;;;;;5114003;28;20063;-60
2021/07/13 11:38:33;;;;;;;8.30;5.63;;;23.40;75.50;;;;;;5118070;28;20071;-61
2021/07/13 11:41:13;;;;;;;8.15;4.82;;;23.40;75.50;;;;;;5120795;28;20522;-60
2021/07/13 11:43:55;;;;;;;6.45;5.15;;;23.40;75.50;;;;;;5109436;28;20078;-62
2021/07/13 11:46:33;;;;;;;5.15;4.65;;;23.40;75.40;;;;;;5122738;28;20066;-62
2021/07/13 11:49:20;;;;;;;6.63;4.45;;;23.40;75.40;;;;;;5123313;28;20050;-61
2021/07/13 11:51:54;;;;;;;5.20;4.47;;;23.40;75.30;;;;;;5096642;28;20055;-62
2021/07/13 11:54:29;;;;;;;4.75;4.30;;;23.40;75.30;;;;;;5113082;28;20289;-61
2021/07/13 11:57:05;;;;;;;4.47;4.00;;;23.40;75.10;;;;;;5114694;28;20768;-62
2021/07/13 11:59:38;;;;;;;4.43;4.03;;;23.40;74.90;;;;;;5121189;28;20063;-60
2021/07/13 12:02:10;;;;;;;4.53;3.70;;;23.50;75.00;;;;;;5111343;28;20051;-61
2021/07/13 12:04:44;;;;;;;7.90;3.83;;;23.50;75.00;;;;;;5112833;28;20050;-61
2021/07/13 12:07:19;;;;;;;5.80;3.38;;;23.50;75.00;;;;;;5115448;28;24832;-63
2021/07/13 12:10:03;;;;;;;5.03;3.42;;;23.40;75.00;;;;;;5114039;28;20527;-61
2021/07/13 12:12:38;;;;;;;4.50;3.63;;;23.40;75.00;;;;;;5118961;28;20761;-62
2021/07/13 12:15:11;;;;;;;3.75;3.40;;;23.40;75.00;;;;;;5116810;28;20046;-62
2021/07/13 12:17:43;;;;;;;4.03;3.63;;;23.40;75.00;;;;;;5100902;28;20528;-61
2021/07/13 12:20:16;;;;;;;3.90;3.13;;;23.40;75.10;;;;;;5117490;28;20679;-61
2021/07/13 12:22:54;;;;;;;4.30;3.28;;;23.30;75.00;;;;;;5121938;28;20459;-62
2021/07/13 12:25:26;;;;;;;4.05;3.13;;;23.40;75.00;;;;;;5106351;28;20046;-63
2021/07/13 12:28:11;;;;;;;3.63;2.78;;;23.40;75.00;;;;;;5107072;28;20042;-62
2021/07/13 12:30:43;;;;;;;10.65;3.20;;;23.40;75.00;;;;;;5111980;28;20057;-61
2021/07/13 12:33:21;;;;;;;9.75;3.47;;;23.40;75.00;;;;;;5117586;28;20496;-61
2021/07/13 12:35:54;;;;;;;5.45;2.97;;;23.40;74.90;;;;;;5100505;28;20047;-62
2021/07/13 12:38:26;;;;;;;3.83;3.00;;;23.40;75.00;;;;;;5112069;28;20249;-61
2021/07/13 12:41:13;;;;;;;3.78;3.13;;;23.40;75.00;;;;;;5109606;28;20046;-62
2021/07/13 12:43:47;;;;;;;4.90;3.00;;;23.40;75.10;;;;;;5114305;28;20061;-61
2021/07/13 12:46:31;;;;;;;6.40;2.90;;;23.50;75.20;;;;;;5111205;28;20051;-62
2021/07/13 12:49:09;;;;;;;5.57;3.40;;;23.40;75.20;;;;;;5113058;28;20562;-61
2021/07/13 12:51:42;;;;;;;3.20;2.83;;;23.50;75.30;;;;;;5108551;28;20050;-62
2021/07/13 12:54:14;;;;;;;2.90;2.50;;;23.50;75.30;;;;;;5108190;28;20054;-62
2021/07/13 12:56:46;;;;;;;3.05;2.65;;;23.50;75.40;;;;;;5108987;28;20051;-63
2021/07/13 12:59:20;;;;;;;4.13;2.92;;;23.50;75.40;;;;;;5113391;28;20054;-63
2021/07/13 13:01:52;;;;;;;2.85;2.58;;;23.40;75.40;;;;;;5110946;28;20054;-61
2021/07/13 13:04:25;;;;;;;3.95;2.70;;;23.40;75.40;;;;;;5109792;28;20046;-61
2021/07/13 13:06:57;;;;;;;4.97;3.22;;;23.50;75.40;;;;;;5112881;28;20080;-62
2021/07/13 13:09:35;;;;;;;5.93;2.70;;;23.50;75.40;;;;;;5112512;28;20085;-61
2021/07/13 13:12:07;;;;;;;3.38;2.47;;;23.50;75.40;;;;;;5099913;28;20046;-61
2021/07/13 13:14:40;;;;;;;3.40;2.80;;;23.50;75.40;;;;;;5110719;28;20046;-61
2021/07/13 13:17:12;;;;;;;5.70;3.00;;;23.50;75.60;;;;;;5100919;28;20066;-60
2021/07/13 13:19:46;;;;;;;8.02;2.63;;;23.50;75.70;;;;;;5105855;28;20522;-61
2021/07/13 13:22:18;;;;;;;4.85;2.42;;;23.50;75.70;;;;;;5108769;28;20130;-61
2021/07/13 13:24:51;;;;;;;9.48;2.35;;;23.40;75.70;;;;;;5109367;28;20731;-62
2021/07/13 13:27:24;;;;;;;7.13;2.78;;;23.40;75.60;;;;;;5089121;28;20977;-62